Time;durP1;ratioP1;P1;durP2;ratioP2;P2;SDS_P1;SDS_P2;PMS_P1;PMS_P2;Temp;Humidity;BMP_temperature;BMP_pressure;BME280_temperature;BME280_humidity;BME280_pressure;Samples;Min_cycle;Max_cycle;Signal;HPM_P1;HPM_P2
2021/08/21 00:02:07;;;;;;;153.27;77.10;;;;;;;;;;5099262;28;20625;-52
2021/08/21 00:04:37;;;;;;;39.33;19.67;;;;;;;;;;5099548;28;20517;-51
2021/08/21 00:07:04;;;;;;;22.33;10.43;;;;;;;;;;5099327;28;20583;-57
2021/08/21 00:09:32;;;;;;;38.90;18.90;;;;;;;;;;5099160;28;20452;-56
2021/08/21 00:12:01;;;;;;;71.87;41.60;;;;;;;;;;5099414;28;20492;-50
2021/08/21 00:14:35;;;;;;;38.83;16.90;;;;;;;;;;5099233;28;20429;-48
2021/08/21 00:17:03;;;;;;;23.70;11.23;;;;;;;;;;5099345;28;20470;-51
2021/08/21 00:19:30;;;;;;;10.73;7.30;;;;;;;;;;5099476;28;20466;-57
2021/08/21 00:21:58;;;;;;;9.47;7.50;;;;;;;;;;5099216;28;20463;-57
2021/08/21 00:24:25;;;;;;;45.43;38.63;;;;;;;;;;5099131;28;20479;-58
2021/08/21 00:26:53;;;;;;;74.37;61.10;;;;;;;;;;5099255;28;20490;-53
2021/08/21 00:29:22;;;;;;;59.90;43.00;;;;;;;;;;5098845;28;20440;-50
2021/08/21 00:31:50;;;;;;;98.63;64.27;;;;;;;;;;5098806;28;20448;-52
2021/08/21 00:34:20;;;;;;;86.87;58.00;;;;;;;;;;5098681;28;20441;-59
2021/08/21 00:36:48;;;;;;;62.63;38.43;;;;;;;;;;5099130;28;20512;-58
2021/08/21 00:39:16;;;;;;;51.03;36.07;;;;;;;;;;5099049;28;20460;-52
2021/08/21 00:41:44;;;;;;;56.73;40.60;;;;;;;;;;5099129;28;20455;-58
2021/08/21 00:44:12;;;;;;;44.83;27.53;;;;;;;;;;5098857;28;20479;-56
2021/08/21 00:47:00;;;;;;;37.37;30.13;;;;;;;;;;5098480;28;20478;-56
2021/08/21 00:49:29;;;;;;;37.40;28.00;;;;;;;;;;5098715;28;20444;-51
2021/08/21 00:51:57;;;;;;;56.17;39.70;;;;;;;;;;5098723;28;20647;-50
2021/08/21 00:54:24;;;;;;;32.63;24.30;;;;;;;;;;5098607;28;20444;-52
2021/08/21 00:56:53;;;;;;;41.87;19.10;;;;;;;;;;5098607;28;20463;-56
2021/08/21 00:59:58;;;;;;;24.17;17.37;;;;;;;;;;5098761;28;20423;-56
2021/08/21 01:02:25;;;;;;;32.63;22.80;;;;;;;;;;5098267;28;20473;-55
2021/08/21 01:04:56;;;;;;;32.63;25.03;;;;;;;;;;5099560;28;20456;-55
2021/08/21 01:07:24;;;;;;;38.97;30.37;;;;;;;;;;5098014;28;20484;-55
2021/08/21 01:09:51;;;;;;;38.20;34.00;;;;;;;;;;5098627;28;20517;-42
2021/08/21 01:12:34;;;;;;;17.37;10.30;;;;;;;;;;5098332;28;20452;-53
2021/08/21 01:15:01;;;;;;;19.20;14.30;;;;;;;;;;5096081;28;20480;-51
2021/08/21 01:17:29;;;;;;;20.63;14.87;;;;;;;;;;5098041;28;20565;-54
2021/08/21 01:19:57;;;;;;;25.43;21.40;;;;;;;;;;5098287;28;20451;-57
2021/08/21 01:22:25;;;;;;;42.80;32.53;;;;;;;;;;5098060;28;20437;-53
2021/08/21 01:25:00;;;;;;;42.03;33.00;;;;;;;;;;5098116;28;20546;-54
2021/08/21 01:27:32;;;;;;;108.73;77.13;;;;;;;;;;5097906;28;20460;-56
2021/08/21 01:30:00;;;;;;;25.87;18.40;;;;;;;;;;5097843;28;20531;-58
2021/08/21 01:32:27;;;;;;;37.37;27.40;;;;;;;;;;5097616;28;20460;-53
2021/08/21 01:34:56;;;;;;;13.70;8.07;;;;;;;;;;5097622;28;20456;-47
2021/08/21 01:37:24;;;;;;;25.10;17.60;;;;;;;;;;5098191;28;20432;-51
2021/08/21 01:39:54;;;;;;;18.53;14.37;;;;;;;;;;5102289;28;20427;-47
2021/08/21 01:42:22;;;;;;;8.90;7.47;;;;;;;;;;5118115;28;20453;-54
2021/08/21 01:44:51;;;;;;;9.23;6.20;;;;;;;;;;5117996;28;20487;-48
2021/08/21 01:47:23;;;;;;;10.33;5.40;;;;;;;;;;5117677;28;20488;-52
2021/08/21 01:49:57;;;;;;;13.50;5.27;;;;;;;;;;5117876;28;20536;-51
2021/08/21 01:52:24;;;;;;;6.30;5.20;;;;;;;;;;5117739;28;20432;-52
2021/08/21 01:54:53;;;;;;;9.70;7.40;;;;;;;;;;5118165;28;20435;-49
2021/08/21 01:57:20;;;;;;;12.90;7.63;;;;;;;;;;5117846;28;20913;-56
2021/08/21 01:59:48;;;;;;;8.60;5.77;;;;;;;;;;5118409;28;20432;-56
2021/08/21 02:02:29;;;;;;;9.30;6.63;;;;;;;;;;5117874;28;20456;-50
2021/08/21 02:04:57;;;;;;;10.13;9.03;;;;;;;;;;5102630;28;20554;-51
2021/08/21 02:07:24;;;;;;;30.23;21.47;;;;;;;;;;5097341;28;20467;-53
2021/08/21 02:09:52;;;;;;;24.53;20.57;;;;;;;;;;5097332;28;20478;-54
2021/08/21 02:12:19;;;;;;;27.63;19.83;;;;;;;;;;5097142;28;20440;-53
2021/08/21 02:14:46;;;;;;;20.90;14.57;;;;;;;;;;5097086;28;20436;-53
2021/08/21 02:17:18;;;;;;;21.43;17.93;;;;;;;;;;5096853;28;20443;-50
2021/08/21 02:19:47;;;;;;;22.57;18.10;;;;;;;;;;5097382;28;20452;-51
2021/08/21 02:22:14;;;;;;;21.97;17.97;;;;;;;;;;5097190;28;20490;-51
2021/08/21 02:24:51;;;;;;;38.27;30.30;;;;;;;;;;5096620;28;20507;-55
2021/08/21 02:27:21;;;;;;;25.30;21.83;;;;;;;;;;5097064;28;20551;-56
2021/08/21 02:29:51;;;;;;;14.50;9.90;;;;;;;;;;5096907;28;20646;-54
2021/08/21 02:32:18;;;;;;;20.83;15.90;;;;;;;;;;5097419;28;20444;-53
2021/08/21 02:34:49;;;;;;;13.30;7.63;;;;;;;;;;5097262;28;20519;-54
2021/08/21 02:37:17;;;;;;;6.87;3.70;;;;;;;;;;5097110;28;20479;-54
2021/08/21 02:39:47;;;;;;;5.00;3.67;;;;;;;;;;5096429;28;20460;-56
2021/08/21 02:42:15;;;;;;;6.80;4.13;;;;;;;;;;5097301;28;20476;-56
2021/08/21 02:44:57;;;;;;;6.30;4.10;;;;;;;;;;5096918;28;20475;-53
2021/08/21 02:47:24;;;;;;;5.40;4.03;;;;;;;;;;5097243;28;20436;-54
2021/08/21 02:49:52;;;;;;;6.00;4.67;;;;;;;;;;5097084;28;20482;-55
2021/08/21 02:52:22;;;;;;;6.60;4.60;;;;;;;;;;5096224;28;20460;-52
2021/08/21 02:54:50;;;;;;;6.30;4.97;;;;;;;;;;5107236;28;20481;-48
2021/08/21 02:57:17;;;;;;;5.97;4.70;;;;;;;;;;5116835;28;20455;-54
2021/08/21 02:59:55;;;;;;;9.80;4.43;;;;;;;;;;5116694;28;20458;-54
2021/08/21 03:02:25;;;;;;;17.13;13.10;;;;;;;;;;5116527;28;20477;-58
2021/08/21 03:04:54;;;;;;;10.90;7.40;;;;;;;;;;5117037;28;20474;-53
2021/08/21 03:07:41;;;;;;;8.57;4.53;;;;;;;;;;5116993;28;20447;-52
2021/08/21 03:10:09;;;;;;;5.70;4.13;;;;;;;;;;5116180;28;20462;-57
2021/08/21 03:12:36;;;;;;;8.83;4.90;;;;;;;;;;5117224;28;20458;-57
2021/08/21 03:15:07;;;;;;;6.43;4.93;;;;;;;;;;5116911;28;20465;-50
2021/08/21 03:17:34;;;;;;;6.23;5.20;;;;;;;;;;5117013;28;20435;-55
2021/08/21 03:20:03;;;;;;;7.10;4.80;;;;;;;;;;5116438;28;20469;-55
2021/08/21 03:22:36;;;;;;;7.27;4.43;;;;;;;;;;5116648;28;20466;-46
2021/08/21 03:25:03;;;;;;;6.63;4.73;;;;;;;;;;5116097;28;20481;-50
2021/08/21 03:27:30;;;;;;;8.07;4.70;;;;;;;;;;5116587;28;20493;-48
2021/08/21 03:30:05;;;;;;;8.30;4.67;;;;;;;;;;5116626;28;20872;-53
2021/08/21 03:32:32;;;;;;;9.60;5.07;;;;;;;;;;5116578;28;20438;-50
2021/08/21 03:35:00;;;;;;;7.20;4.90;;;;;;;;;;5117152;28;20446;-52
2021/08/21 03:37:29;;;;;;;8.20;5.00;;;;;;;;;;5116884;28;20453;-47
2021/08/21 03:39:57;;;;;;;11.70;4.20;;;;;;;;;;5116816;28;20458;-47
2021/08/21 03:42:27;;;;;;;5.30;3.90;;;;;;;;;;5116520;28;20462;-54
2021/08/21 03:44:54;;;;;;;9.53;5.97;;;;;;;;;;5115115;28;20486;-52
2021/08/21 03:47:21;;;;;;;9.23;5.20;;;;;;;;;;5099007;28;20528;-55
2021/08/21 03:49:50;;;;;;;8.90;6.37;;;;;;;;;;5116699;28;20463;-57
2021/08/21 03:52:23;;;;;;;6.70;4.20;;;;;;;;;;5116696;28;20443;-54
2021/08/21 03:55:16;;;;;;;8.20;4.63;;;;;;;;;;5116878;28;20422;-56
2021/08/21 03:57:45;;;;;;;7.63;5.90;;;;;;;;;;5116302;28;20454;-52
2021/08/21 04:00:15;;;;;;;7.30;5.70;;;;;;;;;;5116163;28;20515;-58
2021/08/21 04:02:47;;;;;;;8.83;5.57;;;;;;;;;;5116919;28;20454;-51
2021/08/21 04:05:14;;;;;;;7.53;5.50;;;;;;;;;;5102435;28;20498;-52
2021/08/21 04:07:41;;;;;;;8.87;4.90;;;;;;;;;;5099755;28;20428;-57
2021/08/21 04:10:19;;;;;;;6.83;4.97;;;;;;;;;;5099141;28;20500;-58
2021/08/21 04:12:47;;;;;;;7.03;5.27;;;;;;;;;;5099240;28;20454;-49
2021/08/21 04:15:15;;;;;;;9.73;5.90;;;;;;;;;;5099873;28;20443;-50
2021/08/21 04:17:58;;;;;;;12.17;7.40;;;;;;;;;;5099318;28;20549;-50
2021/08/21 04:20:26;;;;;;;6.63;5.37;;;;;;;;;;5099388;28;20482;-55
2021/08/21 04:22:53;;;;;;;6.97;5.27;;;;;;;;;;5099283;28;20456;-54
2021/08/21 04:25:22;;;;;;;8.53;6.43;;;;;;;;;;5099375;28;20468;-57
2021/08/21 04:27:52;;;;;;;9.37;5.87;;;;;;;;;;5099297;28;20448;-55
2021/08/21 04:30:41;;;;;;;7.83;5.30;;;;;;;;;;5098970;28;20471;-57
2021/08/21 04:33:08;;;;;;;9.50;6.30;;;;;;;;;;5099578;28;20465;-52
2021/08/21 04:35:36;;;;;;;9.57;5.77;;;;;;;;;;5098939;28;20460;-56
2021/08/21 04:38:03;;;;;;;9.73;5.80;;;;;;;;;;5099703;28;20451;-59
2021/08/21 04:40:36;;;;;;;9.27;6.33;;;;;;;;;;5098640;28;20439;-54
2021/08/21 04:43:11;;;;;;;8.93;6.27;;;;;;;;;;5097432;28;20474;-51
2021/08/21 04:45:38;;;;;;;8.53;6.23;;;;;;;;;;5098343;28;20493;-49
2021/08/21 04:48:06;;;;;;;6.43;4.50;;;;;;;;;;5099087;28;20443;-51
2021/08/21 04:51:00;;;;;;;6.23;5.50;;;;;;;;;;5098414;28;20455;-54
2021/08/21 04:53:27;;;;;;;8.10;5.20;;;;;;;;;;5098346;28;20490;-53
2021/08/21 04:55:55;;;;;;;5.80;4.93;;;;;;;;;;5098818;28;20457;-52
2021/08/21 04:58:23;;;;;;;7.87;5.30;;;;;;;;;;5098323;28;20444;-45
2021/08/21 05:00:50;;;;;;;8.77;5.60;;;;;;;;;;5097937;28;20451;-52
2021/08/21 05:03:18;;;;;;;8.00;5.47;;;;;;;;;;5098218;28;20468;-56
2021/08/21 05:05:45;;;;;;;7.30;5.20;;;;;;;;;;5098292;28;20479;-54
2021/08/21 05:08:12;;;;;;;7.13;4.17;;;;;;;;;;5098685;28;20490;-50
2021/08/21 05:10:39;;;;;;;7.60;4.80;;;;;;;;;;5098437;28;20451;-51
2021/08/21 05:13:07;;;;;;;5.37;4.50;;;;;;;;;;5097824;28;20459;-56
2021/08/21 05:15:36;;;;;;;6.43;4.20;;;;;;;;;;5097902;28;20493;-55
2021/08/21 05:18:04;;;;;;;6.97;4.40;;;;;;;;;;5093592;28;20449;-56
2021/08/21 05:20:50;;;;;;;5.80;4.57;;;;;;;;;;5077851;28;20448;-55
2021/08/21 05:23:17;;;;;;;5.90;4.57;;;;;;;;;;5088229;28;20515;-56
2021/08/21 05:25:46;;;;;;;6.10;3.50;;;;;;;;;;5098463;28;20511;-58
2021/08/21 05:28:19;;;;;;;8.63;4.80;;;;;;;;;;5098072;28;20455;-55
2021/08/21 05:30:48;;;;;;;6.47;4.07;;;;;;;;;;5097713;28;20503;-52
2021/08/21 05:33:17;;;;;;;6.43;4.00;;;;;;;;;;5101442;28;20423;-55
2021/08/21 05:35:44;;;;;;;8.83;5.00;;;;;;;;;;5117998;28;20555;-56
2021/08/21 05:38:11;;;;;;;6.90;4.80;;;;;;;;;;5117892;28;20469;-55
2021/08/21 05:40:39;;;;;;;5.83;5.03;;;;;;;;;;5118247;28;20748;-51
2021/08/21 05:43:07;;;;;;;7.17;4.20;;;;;;;;;;5104105;28;20448;-54
2021/08/21 05:45:34;;;;;;;7.77;4.23;;;;;;;;;;5097343;28;20476;-55
2021/08/21 05:48:06;;;;;;;6.47;4.83;;;;;;;;;;5097679;28;20420;-54
2021/08/21 05:50:34;;;;;;;6.50;3.90;;;;;;;;;;5097168;28;20547;-48
2021/08/21 05:53:05;;;;;;;7.27;4.57;;;;;;;;;;5097352;28;20448;-56
2021/08/21 05:55:33;;;;;;;7.50;4.60;;;;;;;;;;5095898;28;20452;-53
2021/08/21 05:58:01;;;;;;;7.50;4.50;;;;;;;;;;5095978;28;20503;-54
2021/08/21 06:00:30;;;;;;;6.10;4.43;;;;;;;;;;5097057;28;20509;-51
2021/08/21 06:02:57;;;;;;;6.07;4.40;;;;;;;;;;5079622;28;20452;-54
2021/08/21 06:05:26;;;;;;;6.97;4.57;;;;;;;;;;5097045;28;20468;-59
2021/08/21 06:07:55;;;;;;;6.43;4.70;;;;;;;;;;5097113;28;20498;-57
2021/08/21 06:10:26;;;;;;;8.43;4.33;;;;;;;;;;5097048;28;20464;-58
2021/08/21 06:13:06;;;;;;;6.27;4.27;;;;;;;;;;5096268;28;20516;-57
2021/08/21 06:15:33;;;;;;;5.40;4.40;;;;;;;;;;5096248;28;20523;-57
2021/08/21 06:18:01;;;;;;;5.40;4.40;;;;;;;;;;5096435;28;20456;-56
2021/08/21 06:20:31;;;;;;;8.33;5.10;;;;;;;;;;5096337;28;20470;-51
2021/08/21 06:22:59;;;;;;;7.93;4.97;;;;;;;;;;5096994;28;20505;-55
2021/08/21 06:25:26;;;;;;;9.00;5.70;;;;;;;;;;5095974;28;20514;-52
2021/08/21 06:27:53;;;;;;;7.90;4.93;;;;;;;;;;5097062;28;20593;-57
2021/08/21 06:30:20;;;;;;;6.83;5.43;;;;;;;;;;5096592;28;20455;-55
2021/08/21 06:32:48;;;;;;;6.67;4.60;;;;;;;;;;5096483;28;20474;-57
2021/08/21 06:35:15;;;;;;;7.03;5.00;;;;;;;;;;5097006;28;20440;-57
2021/08/21 06:37:50;;;;;;;6.97;4.10;;;;;;;;;;5096704;28;20448;-56
2021/08/21 06:40:21;;;;;;;6.07;4.90;;;;;;;;;;5096528;28;20474;-53
2021/08/21 06:42:49;;;;;;;6.80;5.47;;;;;;;;;;5096299;28;20462;-53
2021/08/21 06:45:16;;;;;;;8.27;4.97;;;;;;;;;;5095853;28;20484;-54
2021/08/21 06:47:44;;;;;;;11.40;4.50;;;;;;;;;;5078832;28;20534;-54
2021/08/21 06:50:48;;;;;;;9.33;5.70;;;;;;;;;;5091785;28;20480;-58
2021/08/21 06:53:22;;;;;;;5.70;5.10;;;;;;;;;;5086048;28;20472;-54
2021/08/21 06:55:55;;;;;;;7.77;5.20;;;;;;;;;;5082030;28;20543;-54
2021/08/21 06:58:23;;;;;;;10.83;4.90;;;;;;;;;;5092650;28;20456;-57
2021/08/21 07:00:55;;;;;;;9.07;5.33;;;;;;;;;;5096529;28;20460;-53
2021/08/21 07:03:41;;;;;;;7.57;5.73;;;;;;;;;;5095453;28;20432;-58
2021/08/21 07:06:11;;;;;;;6.33;4.40;;;;;;;;;;5082578;28;20486;-54
2021/08/21 07:08:40;;;;;;;5.23;4.63;;;;;;;;;;5095768;28;20424;-59
2021/08/21 07:11:08;;;;;;;7.60;5.93;;;;;;;;;;5096448;28;20424;-58
2021/08/21 07:13:37;;;;;;;7.07;5.13;;;;;;;;;;5096040;28;20471;-52
2021/08/21 07:16:05;;;;;;;8.10;4.93;;;;;;;;;;5076095;28;20769;-57
2021/08/21 07:18:32;;;;;;;9.40;5.03;;;;;;;;;;5075513;28;20459;-55
2021/08/21 07:21:00;;;;;;;7.63;4.67;;;;;;;;;;5078507;28;20445;-53
2021/08/21 07:23:27;;;;;;;5.43;4.43;;;;;;;;;;5103850;28;20444;-59
2021/08/21 07:25:56;;;;;;;6.53;5.03;;;;;;;;;;5095395;28;20476;-48
2021/08/21 07:28:23;;;;;;;6.63;4.77;;;;;;;;;;5080558;28;20502;-58
2021/08/21 07:30:51;;;;;;;5.40;3.77;;;;;;;;;;5075676;28;20456;-52
2021/08/21 07:33:28;;;;;;;8.00;5.13;;;;;;;;;;5075499;28;20593;-52
2021/08/21 07:35:55;;;;;;;5.80;4.63;;;;;;;;;;5086504;28;20476;-55
2021/08/21 07:38:23;;;;;;;5.57;4.30;;;;;;;;;;5097849;28;20470;-58
2021/08/21 07:40:51;;;;;;;5.23;4.70;;;;;;;;;;5099226;28;20451;-57
2021/08/21 07:43:19;;;;;;;8.30;4.10;;;;;;;;;;5099698;28;20486;-52
2021/08/21 07:45:54;;;;;;;9.20;4.50;;;;;;;;;;5098532;28;20502;-52
2021/08/21 07:48:26;;;;;;;5.90;3.90;;;;;;;;;;5099006;28;20469;-50
2021/08/21 07:50:55;;;;;;;4.27;3.07;;;;;;;;;;5098688;28;20494;-50
2021/08/21 07:53:37;;;;;;;4.73;4.10;;;;;;;;;;5099269;28;20440;-50
2021/08/21 07:56:27;;;;;;;8.80;4.90;;;;;;;;;;5098763;28;20432;-54
2021/08/21 07:58:59;;;;;;;5.93;3.80;;;;;;;;;;5098624;28;20504;-54
2021/08/21 08:01:30;;;;;;;7.60;5.60;;;;;;;;;;5098248;28;20524;-57
2021/08/21 08:03:57;;;;;;;6.70;4.47;;;;;;;;;;5098304;28;20444;-55
2021/08/21 08:06:27;;;;;;;6.93;4.33;;;;;;;;;;5098378;28;20479;-47
2021/08/21 08:09:15;;;;;;;4.93;3.73;;;;;;;;;;5098978;28;20440;-49
2021/08/21 08:11:47;;;;;;;9.13;3.40;;;;;;;;;;5098671;28;20448;-52
2021/08/21 08:14:15;;;;;;;7.27;3.90;;;;;;;;;;5099126;28;20447;-57
2021/08/21 08:17:03;;;;;;;5.80;4.03;;;;;;;;;;5085941;28;20464;-53
2021/08/21 08:19:34;;;;;;;5.63;4.37;;;;;;;;;;5119550;28;20526;-60
2021/08/21 08:22:33;;;;;;;5.83;3.97;;;;;;;;;;5101899;28;20531;-58
2021/08/21 08:25:01;;;;;;;5.80;4.47;;;;;;;;;;5116704;28;20459;-53
2021/08/21 08:27:30;;;;;;;6.03;4.23;;;;;;;;;;5098336;28;20518;-57
2021/08/21 08:30:18;;;;;;;11.20;5.57;;;;;;;;;;5098502;28;20532;-54
2021/08/21 08:32:46;;;;;;;5.60;4.53;;;;;;;;;;5098117;28;20448;-58
2021/08/21 08:35:13;;;;;;;7.43;4.30;;;;;;;;;;5097889;28;20460;-50
2021/08/21 08:38:04;;;;;;;6.60;4.00;;;;;;;;;;5098113;28;20456;-56
2021/08/21 08:40:31;;;;;;;8.63;5.30;;;;;;;;;;5086483;28;20445;-55
2021/08/21 08:43:00;;;;;;;9.00;5.90;;;;;;;;;;5078282;28;20445;-58
2021/08/21 08:45:32;;;;;;;11.67;6.57;;;;;;;;;;5077342;28;20457;-61
2021/08/21 08:48:00;;;;;;;8.70;6.80;;;;;;;;;;5089163;28;20526;-55
2021/08/21 08:50:28;;;;;;;7.73;5.90;;;;;;;;;;5096826;28;20517;-55
2021/08/21 08:53:11;;;;;;;11.60;7.40;;;;;;;;;;5097048;28;20452;-53
2021/08/21 08:55:40;;;;;;;9.00;7.10;;;;;;;;;;5101151;28;20481;-56
2021/08/21 08:58:08;;;;;;;14.20;7.50;;;;;;;;;;5117405;28;20435;-57
2021/08/21 09:00:53;;;;;;;10.23;7.67;;;;;;;;;;5096860;28;20546;-52
2021/08/21 09:03:21;;;;;;;9.00;6.67;;;;;;;;;;5096510;28;20539;-57
2021/08/21 09:05:49;;;;;;;7.87;7.07;;;;;;;;;;5096133;28;20512;-54
2021/08/21 09:08:23;;;;;;;9.30;6.63;;;;;;;;;;5116171;28;20483;-58
2021/08/21 09:10:51;;;;;;;8.70;6.30;;;;;;;;;;5117180;28;20446;-53
2021/08/21 09:13:23;;;;;;;7.93;6.60;;;;;;;;;;5117109;28;20483;-54
2021/08/21 09:16:14;;;;;;;8.07;5.13;;;;;;;;;;5117301;28;20450;-54
2021/08/21 09:18:46;;;;;;;8.97;6.03;;;;;;;;;;5116577;28;20455;-52
2021/08/21 09:21:15;;;;;;;6.53;5.23;;;;;;;;;;5111091;28;20444;-56
2021/08/21 09:23:46;;;;;;;7.07;4.53;;;;;;;;;;5101817;28;20479;-54
2021/08/21 09:26:19;;;;;;;7.70;3.90;;;;;;;;;;5114943;28;20514;-53
2021/08/21 09:28:48;;;;;;;4.10;3.33;;;;;;;;;;5116993;28;20862;-54
2021/08/21 09:31:16;;;;;;;6.23;4.20;;;;;;;;;;5116888;28;20471;-57
2021/08/21 09:33:52;;;;;;;5.83;3.60;;;;;;;;;;5116607;28;20451;-56
2021/08/21 09:36:28;;;;;;;6.80;3.70;;;;;;;;;;5116122;28;20431;-52
2021/08/21 09:38:57;;;;;;;10.83;2.77;;;;;;;;;;5098161;28;20439;-54
2021/08/21 09:41:30;;;;;;;4.10;2.90;;;;;;;;;;5116408;28;20506;-51
2021/08/21 09:44:06;;;;;;;4.67;2.70;;;;;;;;;;5116057;28;20491;-58
2021/08/21 09:46:33;;;;;;;3.83;2.40;;;;;;;;;;5114388;28;20493;-57
2021/08/21 09:49:12;;;;;;;7.73;3.17;;;;;;;;;;5110190;28;20490;-55
2021/08/21 09:51:45;;;;;;;5.63;3.60;;;;;;;;;;5112477;28;20502;-54
2021/08/21 09:54:21;;;;;;;4.60;3.13;;;;;;;;;;5083444;28;20487;-52
2021/08/21 09:57:02;;;;;;;6.23;2.73;;;;;;;;;;5095988;28;20452;-58
2021/08/21 09:59:37;;;;;;;3.83;2.27;;;;;;;;;;5095797;28;20486;-53
2021/08/21 10:05:16;;;;;;;3.63;2.33;;;;;;;;;;5094464;28;20506;-58
2021/08/21 10:07:47;;;;;;;4.40;2.43;;;;;;;;;;5095568;28;20501;-50
2021/08/21 10:10:23;;;;;;;4.60;4.17;;;;;;;;;;5077753;28;20448;-54
2021/08/21 10:12:55;;;;;;;4.60;2.30;;;;;;;;;;5094722;28;20438;-53
2021/08/21 10:15:26;;;;;;;3.93;2.90;;;;;;;;;;5093959;28;20530;-54
2021/08/21 10:17:55;;;;;;;3.30;2.43;;;;;;;;;;5094066;28;20451;-53
2021/08/21 10:20:24;;;;;;;4.20;2.60;;;;;;;;;;5094586;28;20465;-50
2021/08/21 10:22:57;;;;;;;4.43;2.20;;;;;;;;;;5094320;28;20472;-56
2021/08/21 10:25:26;;;;;;;4.50;2.90;;;;;;;;;;5082960;28;20941;-57
2021/08/21 10:27:55;;;;;;;3.53;2.17;;;;;;;;;;5089134;28;20484;-54
2021/08/21 10:30:53;;;;;;;3.60;2.50;;;;;;;;;;5103136;28;20435;-55
2021/08/21 10:33:35;;;;;;;4.17;2.27;;;;;;;;;;5089163;28;20478;-49
2021/08/21 10:36:40;;;;;;;3.50;2.13;;;;;;;;;;5094729;28;20494;-54
2021/08/21 10:39:20;;;;;;;3.60;2.67;;;;;;;;;;5094370;28;20436;-60
2021/08/21 10:41:50;;;;;;;4.20;2.40;;;;;;;;;;5094338;28;20494;-55
2021/08/21 10:44:37;;;;;;;3.03;1.90;;;;;;;;;;5095642;28;20468;-51
2021/08/21 10:47:04;;;;;;;5.50;1.87;;;;;;;;;;5078592;28;20478;-53
2021/08/21 10:49:53;;;;;;;3.10;2.17;;;;;;;;;;5095555;28;20467;-52
2021/08/21 10:52:40;;;;;;;4.40;2.17;;;;;;;;;;5095060;28;20460;-57
2021/08/21 10:55:16;;;;;;;3.27;2.27;;;;;;;;;;5094847;28;20490;-56
2021/08/21 11:01:14;;;;;;;3.77;2.40;;;;;;;;;;5094444;28;20448;-57
2021/08/21 11:04:02;;;;;;;5.30;2.50;;;;;;;;;;5072290;28;20452;-54
2021/08/21 11:06:38;;;;;;;3.80;2.30;;;;;;;;;;5090955;28;20492;-55
2021/08/21 11:09:31;;;;;;;3.93;2.20;;;;;;;;;;5091363;28;20791;-52
2021/08/21 11:12:14;;;;;;;6.27;2.33;;;;;;;;;;5093518;28;20448;-52
2021/08/21 11:14:54;;;;;;;7.83;4.37;;;;;;;;;;5093980;28;20476;-56
2021/08/21 11:17:34;;;;;;;10.37;3.87;;;;;;;;;;5094521;28;20440;-61
2021/08/21 11:20:28;;;;;;;8.13;3.13;;;;;;;;;;5096252;28;20464;-55
2021/08/21 11:23:17;;;;;;;5.73;2.80;;;;;;;;;;5081877;28;20470;-57
2021/08/21 11:25:50;;;;;;;4.47;2.90;;;;;;;;;;5102029;28;20510;-56
2021/08/21 11:31:18;;;;;;;17.07;4.50;;;;;;;;;;5088441;28;20547;-54
2021/08/21 11:33:46;;;;;;;5.43;2.70;;;;;;;;;;5104023;28;20460;-55
2021/08/21 11:36:16;;;;;;;4.10;2.60;;;;;;;;;;5096000;28;20424;-55
2021/08/21 11:39:16;;;;;;;8.73;3.30;;;;;;;;;;5093776;28;20439;-52
2021/08/21 11:41:57;;;;;;;5.13;3.43;;;;;;;;;;5111071;28;20463;-58
2021/08/21 11:44:30;;;;;;;3.83;2.40;;;;;;;;;;5095653;28;20459;-51
2021/08/21 11:49:47;;;;;;;8.73;5.50;;;;;;;;;;5091825;28;20538;-58
2021/08/21 11:52:14;;;;;;;5.30;3.73;;;;;;;;;;5094959;28;20460;-58
2021/08/21 11:54:49;;;;;;;6.30;3.43;;;;;;;;;;5096163;28;20502;-56
2021/08/21 11:57:18;;;;;;;4.37;3.20;;;;;;;;;;5097545;28;20456;-53
2021/08/21 11:59:56;;;;;;;6.07;3.50;;;;;;;;;;5096506;28;20483;-57
2021/08/21 12:02:43;;;;;;;6.03;3.30;;;;;;;;;;5096106;28;20432;-50
2021/08/21 12:11:38;;;;;;;4.63;3.40;;;;;;;;;;5049148;28;20615;-56
2021/08/21 12:14:40;;;;;;;5.00;3.23;;;;;;;;;;5094519;28;20459;-54
2021/08/21 12:17:10;;;;;;;6.53;4.50;;;;;;;;;;5092324;28;20523;-54
2021/08/21 12:19:40;;;;;;;6.77;3.53;;;;;;;;;;5097175;28;20477;-58
2021/08/21 12:22:12;;;;;;;4.30;3.40;;;;;;;;;;5098334;28;20475;-54
2021/08/21 12:24:53;;;;;;;6.90;5.00;;;;;;;;;;5095985;28;20509;-56
2021/08/21 12:27:57;;;;;;;6.00;3.30;;;;;;;;;;5077436;28;20515;-57
2021/08/21 12:30:24;;;;;;;11.40;4.47;;;;;;;;;;5091350;28;20476;-56
2021/08/21 12:33:24;;;;;;;5.60;4.00;;;;;;;;;;5097978;28;20456;-57
2021/08/21 12:36:20;;;;;;;4.20;3.30;;;;;;;;;;5095958;28;20444;-56
2021/08/21 12:39:09;;;;;;;4.07;2.60;;;;;;;;;;5074873;28;20453;-55
2021/08/21 12:41:58;;;;;;;8.63;3.90;;;;;;;;;;5076882;28;20453;-53
2021/08/21 12:44:33;;;;;;;5.80;4.10;;;;;;;;;;5076603;28;20449;-58
2021/08/21 12:47:17;;;;;;;6.90;4.07;;;;;;;;;;5076308;28;20500;-51
2021/08/21 12:49:45;;;;;;;5.57;3.13;;;;;;;;;;5075819;28;20493;-55
2021/08/21 12:52:13;;;;;;;4.97;3.10;;;;;;;;;;5066568;28;20633;-55
2021/08/21 12:54:43;;;;;;;4.70;3.10;;;;;;;;;;5053893;28;20502;-51
2021/08/21 12:57:11;;;;;;;5.13;3.00;;;;;;;;;;5053070;28;20517;-58
2021/08/21 12:59:39;;;;;;;4.03;3.13;;;;;;;;;;5069201;28;20457;-59
2021/08/21 13:02:07;;;;;;;7.07;3.20;;;;;;;;;;5072987;28;20828;-58
2021/08/21 13:04:35;;;;;;;4.80;3.20;;;;;;;;;;5073911;28;20465;-51
2021/08/21 13:07:03;;;;;;;6.13;3.70;;;;;;;;;;5069307;28;20523;-59
2021/08/21 13:09:30;;;;;;;6.73;3.90;;;;;;;;;;5069878;28;20441;-59
2021/08/21 13:12:00;;;;;;;4.20;2.93;;;;;;;;;;5076236;28;20532;-52
2021/08/21 13:14:32;;;;;;;3.97;2.83;;;;;;;;;;5065934;28;20513;-54
2021/08/21 13:17:06;;;;;;;8.10;4.40;;;;;;;;;;5070090;28;20518;-57
2021/08/21 13:19:34;;;;;;;5.27;3.67;;;;;;;;;;5058159;28;20486;-55
2021/08/21 13:22:06;;;;;;;4.50;3.20;;;;;;;;;;5056666;28;20477;-53
2021/08/21 13:24:45;;;;;;;4.80;3.83;;;;;;;;;;5066491;28;20442;-57
2021/08/21 13:27:15;;;;;;;5.43;2.90;;;;;;;;;;5065066;28;20478;-57
2021/08/21 13:29:43;;;;;;;5.90;3.50;;;;;;;;;;5067938;28;21140;-56
2021/08/21 13:32:15;;;;;;;5.50;3.70;;;;;;;;;;5061642;28;20454;-52
2021/08/21 13:34:45;;;;;;;6.00;3.33;;;;;;;;;;5068355;28;20465;-57
2021/08/21 13:37:14;;;;;;;4.33;3.10;;;;;;;;;;5055512;28;20477;-54
2021/08/21 13:39:47;;;;;;;4.37;3.20;;;;;;;;;;5074400;28;20468;-56
2021/08/21 13:42:22;;;;;;;4.63;3.70;;;;;;;;;;5074658;28;20433;-52
2021/08/21 13:44:50;;;;;;;4.77;3.13;;;;;;;;;;5052521;28;20476;-57
2021/08/21 13:47:17;;;;;;;5.10;3.20;;;;;;;;;;5071030;28;20488;-53
2021/08/21 13:49:48;;;;;;;6.40;3.13;;;;;;;;;;5075162;28;20483;-51
2021/08/21 13:52:15;;;;;;;4.93;3.17;;;;;;;;;;5074428;28;20441;-55
2021/08/21 13:54:46;;;;;;;4.20;3.40;;;;;;;;;;5074917;28;20488;-56
2021/08/21 13:57:13;;;;;;;5.73;3.47;;;;;;;;;;5062973;28;20484;-59
2021/08/21 13:59:43;;;;;;;5.60;3.40;;;;;;;;;;5074159;28;20468;-57
2021/08/21 14:02:31;;;;;;;5.40;3.43;;;;;;;;;;5064395;28;20483;-56
2021/08/21 14:05:05;;;;;;;6.73;3.03;;;;;;;;;;5054988;28;20450;-51
2021/08/21 14:07:40;;;;;;;4.20;3.00;;;;;;;;;;5072943;28;20485;-61
2021/08/21 14:10:11;;;;;;;5.80;3.47;;;;;;;;;;5094414;28;20487;-58
2021/08/21 14:12:42;;;;;;;3.90;2.60;;;;;;;;;;5110942;28;20451;-53
2021/08/21 14:15:17;;;;;;;4.87;2.83;;;;;;;;;;5100554;28;20463;-58
2021/08/21 14:17:45;;;;;;;5.37;2.90;;;;;;;;;;5112442;28;20447;-52
2021/08/21 14:20:15;;;;;;;3.70;2.90;;;;;;;;;;5114152;28;20459;-57
2021/08/21 14:22:45;;;;;;;5.07;4.20;;;;;;;;;;5114409;28;20489;-57
2021/08/21 14:25:13;;;;;;;5.67;2.97;;;;;;;;;;5098194;28;20435;-55
2021/08/21 14:27:44;;;;;;;4.80;3.30;;;;;;;;;;5105577;28;20493;-58
2021/08/21 14:30:16;;;;;;;5.00;4.10;;;;;;;;;;5109527;28;20439;-57
2021/08/21 14:32:46;;;;;;;4.70;2.87;;;;;;;;;;5096186;28;20455;-57
2021/08/21 14:38:00;;;;;;;7.43;3.97;;;;;;;;;;5103670;28;20520;-54
2021/08/21 14:40:35;;;;;;;4.07;3.10;;;;;;;;;;5095377;28;20456;-58
2021/08/21 14:43:02;;;;;;;6.70;3.40;;;;;;;;;;5098750;28;20456;-52
2021/08/21 14:45:31;;;;;;;5.90;4.13;;;;;;;;;;5107152;28;20504;-49
2021/08/21 14:47:59;;;;;;;10.20;3.87;;;;;;;;;;5091933;28;20484;-51
2021/08/21 14:50:26;;;;;;;4.07;3.00;;;;;;;;;;5106982;28;20473;-55
2021/08/21 14:52:54;;;;;;;3.77;2.80;;;;;;;;;;5102749;28;20443;-51
2021/08/21 14:55:21;;;;;;;5.03;3.30;;;;;;;;;;5113885;28;20481;-56
2021/08/21 14:57:55;;;;;;;5.23;3.30;;;;;;;;;;5108321;28;20460;-57
2021/08/21 15:00:24;;;;;;;4.40;3.13;;;;;;;;;;5104274;28;20454;-62
2021/08/21 15:03:15;;;;;;;7.00;4.00;;;;;;;;;;5114278;28;20517;-53
2021/08/21 15:05:46;;;;;;;4.00;2.43;;;;;;;;;;5106588;28;20500;-56
2021/08/21 15:08:35;;;;;;;6.13;3.70;;;;;;;;;;5114650;28;20486;-52
2021/08/21 15:11:03;;;;;;;4.00;2.90;;;;;;;;;;5069291;28;20595;-58
2021/08/21 15:13:52;;;;;;;3.70;2.73;;;;;;;;;;5074326;28;20503;-57
2021/08/21 15:16:25;;;;;;;5.33;3.00;;;;;;;;;;5073899;28;20462;-56
2021/08/21 15:18:54;;;;;;;5.50;3.27;;;;;;;;;;5073175;28;20460;-51
2021/08/21 15:21:23;;;;;;;6.30;2.70;;;;;;;;;;5073171;28;20445;-58
2021/08/21 15:23:50;;;;;;;9.10;6.93;;;;;;;;;;5060198;28;20471;-56
2021/08/21 15:26:31;;;;;;;5.60;3.70;;;;;;;;;;5073375;28;20430;-55
2021/08/21 15:28:59;;;;;;;5.30;3.10;;;;;;;;;;5073155;28;20481;-53
2021/08/21 15:31:33;;;;;;;3.90;2.83;;;;;;;;;;5073643;28;20483;-59